Time;durP1;ratioP1;P1;durP2;ratioP2;P2;SDS_P1;SDS_P2;PMS_P1;PMS_P2;Temp;Humidity;BMP_temperature;BMP_pressure;BME280_temperature;BME280_humidity;BME280_pressure;Samples;Min_cycle;Max_cycle;Signal;HPM_P1;HPM_P2
2022/04/24 00:02:42;;;;;;;12.40;8.15;;;;;;;;;;6228219;28;20327;-82
2022/04/24 00:05:46;;;;;;;11.65;8.60;;;;;;;;;;6226524;28;20416;-82
2022/04/24 00:08:47;;;;;;;10.07;6.30;;;;;;;;;;6227570;28;20096;-80
2022/04/24 00:11:49;;;;;;;12.02;8.02;;;;;;;;;;6227125;28;20100;-81
2022/04/24 00:14:51;;;;;;;10.98;7.53;;;;;;;;;;6223941;28;20355;-82
2022/04/24 00:17:53;;;;;;;13.38;8.57;;;;;;;;;;6223566;28;20100;-81
2022/04/24 00:24:52;;;;;;;11.18;8.85;;;;;;;;;;6225196;28;20045;-82
2022/04/24 00:27:54;;;;;;;11.73;8.02;;;;;;;;;;6227549;28;20054;-82
2022/04/24 00:30:56;;;;;;;11.65;8.88;;;;;;;;;;6225489;28;20062;-82
2022/04/24 00:33:58;;;;;;;10.48;8.50;;;;;;;;;;6227352;28;20149;-81
2022/04/24 00:37:00;;;;;;;10.18;8.23;;;;;;;;;;6225322;28;20057;-80
2022/04/24 00:40:04;;;;;;;12.05;8.80;;;;;;;;;;6224508;28;20326;-79
2022/04/24 00:43:06;;;;;;;9.20;5.10;;;;;;;;;;6224609;28;20058;-80
2022/04/24 00:46:13;;;;;;;5.80;4.30;;;;;;;;;;6226200;28;20052;-79
2022/04/24 00:49:15;;;;;;;5.15;3.45;;;;;;;;;;6223610;28;20056;-79
2022/04/24 00:52:17;;;;;;;6.88;3.63;;;;;;;;;;6224448;28;20058;-79
2022/04/24 00:55:23;;;;;;;7.72;3.25;;;;;;;;;;6221646;28;20065;-80
2022/04/24 00:58:25;;;;;;;5.53;3.17;;;;;;;;;;6229319;28;20348;-80
2022/04/24 01:01:27;;;;;;;4.72;2.50;;;;;;;;;;6224591;28;20334;-80
2022/04/24 01:04:29;;;;;;;4.18;2.25;;;;;;;;;;6226065;28;20050;-80
2022/04/24 01:07:30;;;;;;;5.40;2.50;;;;;;;;;;6224686;28;20085;-80
2022/04/24 01:10:38;;;;;;;5.03;2.70;;;;;;;;;;6229378;28;20058;-80
2022/04/24 01:13:40;;;;;;;6.57;2.42;;;;;;;;;;6224835;28;20100;-80
2022/04/24 01:16:42;;;;;;;3.35;2.20;;;;;;;;;;6227613;28;20336;-81
2022/04/24 01:19:43;;;;;;;5.00;2.58;;;;;;;;;;6222300;28;20054;-81
2022/04/24 01:22:46;;;;;;;4.22;2.10;;;;;;;;;;6219570;28;20400;-81
2022/04/24 01:25:48;;;;;;;4.30;2.15;;;;;;;;;;6223645;28;20058;-81
2022/04/24 01:28:50;;;;;;;4.88;1.83;;;;;;;;;;6219600;28;20113;-82
2022/04/24 01:31:52;;;;;;;3.40;2.17;;;;;;;;;;6221869;28;20050;-82
2022/04/24 01:34:54;;;;;;;3.85;2.25;;;;;;;;;;6223419;28;20190;-82
2022/04/24 01:37:58;;;;;;;3.65;1.92;;;;;;;;;;6218993;28;20057;-82
2022/04/24 01:41:00;;;;;;;;;;;;;;;;;;6219501;28;20116;-82
2022/04/24 01:44:01;;;;;;;3.15;2.40;;;;;;;;;;6226657;28;19925;-78
2022/04/24 01:47:03;;;;;;;3.38;2.20;;;;;;;;;;6227225;28;20104;-84
2022/04/24 01:50:06;;;;;;;3.67;2.38;;;;;;;;;;6223096;28;20053;-83
2022/04/24 01:53:09;;;;;;;5.30;2.20;;;;;;;;;;6219750;28;20058;-82
2022/04/24 01:56:12;;;;;;;5.25;2.33;;;;;;;;;;6219037;28;20104;-83
2022/04/24 01:59:13;;;;;;;3.75;1.77;;;;;;;;;;6228624;28;20050;-83
2022/04/24 02:02:15;;;;;;;4.20;1.73;;;;;;;;;;6225913;28;20081;-83
2022/04/24 02:05:17;;;;;;;2.22;1.50;;;;;;;;;;6223612;28;20049;-84
2022/04/24 02:08:21;;;;;;;4.00;1.30;;;;;;;;;;6224082;28;20062;-82
2022/04/24 02:11:22;;;;;;;2.22;1.42;;;;;;;;;;6219694;28;20280;-83
2022/04/24 02:14:24;;;;;;;4.55;1.60;;;;;;;;;;6225427;28;20111;-83
2022/04/24 02:17:25;;;;;;;3.22;1.40;;;;;;;;;;6220902;28;20101;-84
2022/04/24 02:20:28;;;;;;;3.42;1.50;;;;;;;;;;6226702;28;20342;-84
2022/04/24 02:23:32;;;;;;;2.90;1.52;;;;;;;;;;6223887;28;20050;-81
2022/04/24 02:26:34;;;;;;;2.95;1.27;;;;;;;;;;6224863;28;20050;-80
2022/04/24 02:29:35;;;;;;;2.17;1.20;;;;;;;;;;6222712;28;20065;-80
2022/04/24 02:32:37;;;;;;;3.88;1.50;;;;;;;;;;6218334;28;20057;-80
2022/04/24 02:35:39;;;;;;;3.28;1.20;;;;;;;;;;6221085;28;20062;-79
2022/04/24 02:38:42;;;;;;;4.53;1.42;;;;;;;;;;6224419;28;20061;-79
2022/04/24 02:41:43;;;;;;;2.78;1.30;;;;;;;;;;6223177;28;20053;-79
2022/04/24 02:44:45;;;;;;;3.10;1.35;;;;;;;;;;6230959;28;20057;-80
2022/04/24 02:47:47;;;;;;;3.42;1.50;;;;;;;;;;6221037;28;20062;-79
2022/04/24 02:50:49;;;;;;;3.58;1.45;;;;;;;;;;6221562;28;20076;-79
2022/04/24 02:53:52;;;;;;;3.58;1.90;;;;;;;;;;6224306;28;20386;-79
2022/04/24 02:56:53;;;;;;;3.35;1.80;;;;;;;;;;6225258;28;20383;-79
2022/04/24 02:59:55;;;;;;;2.50;1.50;;;;;;;;;;6226853;28;20045;-79
2022/04/24 03:02:57;;;;;;;4.47;1.65;;;;;;;;;;6220565;28;20057;-78
2022/04/24 03:05:59;;;;;;;2.47;1.55;;;;;;;;;;6221746;28;20100;-79
2022/04/24 03:09:02;;;;;;;3.40;1.58;;;;;;;;;;6221528;28;20065;-79
2022/04/24 03:12:04;;;;;;;2.88;1.83;;;;;;;;;;6230577;28;20348;-79
2022/04/24 03:15:07;;;;;;;7.57;1.90;;;;;;;;;;6230853;28;20232;-79
2022/04/24 03:18:08;;;;;;;2.47;1.63;;;;;;;;;;6228253;28;20085;-79
2022/04/24 03:21:10;;;;;;;6.25;2.00;;;;;;;;;;6228895;28;20207;-78
2022/04/24 03:24:13;;;;;;;2.67;1.70;;;;;;;;;;6226593;28;20233;-79
2022/04/24 03:27:15;;;;;;;3.97;1.77;;;;;;;;;;6229222;28;20089;-79
2022/04/24 03:30:17;;;;;;;2.55;1.70;;;;;;;;;;6225256;28;20046;-79
2022/04/24 03:33:18;;;;;;;2.97;1.60;;;;;;;;;;6227841;28;20089;-78
2022/04/24 03:36:20;;;;;;;2.20;1.73;;;;;;;;;;6223146;28;20291;-79
2022/04/24 03:39:23;;;;;;;4.80;1.52;;;;;;;;;;6223788;28;20062;-77
2022/04/24 03:42:26;;;;;;;2.28;1.30;;;;;;;;;;6225036;28;20325;-78
2022/04/24 03:45:28;;;;;;;5.03;1.70;;;;;;;;;;6228923;28;20054;-78
2022/04/24 03:48:29;;;;;;;1.98;1.10;;;;;;;;;;6224269;28;20104;-79
2022/04/24 03:51:31;;;;;;;2.20;0.98;;;;;;;;;;6226998;28;20050;-77
2022/04/24 03:54:34;;;;;;;1.23;1.00;;;;;;;;;;6223849;28;20345;-78
2022/04/24 03:57:36;;;;;;;3.30;1.03;;;;;;;;;;6226606;28;20061;-78
2022/04/24 04:00:37;;;;;;;2.17;0.80;;;;;;;;;;6226220;28;20049;-78
2022/04/24 04:03:39;;;;;;;3.42;1.08;;;;;;;;;;6227345;28;20049;-79
2022/04/24 04:06:41;;;;;;;2.70;1.00;;;;;;;;;;6226280;28;20056;-78
2022/04/24 04:09:44;;;;;;;3.55;1.02;;;;;;;;;;6222433;28;20350;-78
2022/04/24 04:12:46;;;;;;;2.15;0.90;;;;;;;;;;6225430;28;20359;-77
2022/04/24 04:15:47;;;;;;;2.70;1.20;;;;;;;;;;6226423;28;20285;-78
2022/04/24 04:18:49;;;;;;;3.30;1.30;;;;;;;;;;6230201;28;20379;-79
2022/04/24 04:21:51;;;;;;;1.92;1.42;;;;;;;;;;6226918;28;20077;-77
2022/04/24 04:24:54;;;;;;;3.22;1.40;;;;;;;;;;6227211;28;20049;-78
2022/04/24 04:27:56;;;;;;;2.57;1.30;;;;;;;;;;6227420;28;20050;-78
2022/04/24 04:30:57;;;;;;;5.40;1.60;;;;;;;;;;6226971;28;20664;-78
2022/04/24 04:33:59;;;;;;;5.30;1.58;;;;;;;;;;6227810;28;20057;-78
2022/04/24 04:37:00;;;;;;;2.33;1.48;;;;;;;;;;6228239;28;20328;-79
2022/04/24 04:40:04;;;;;;;4.18;1.60;;;;;;;;;;6223827;28;20229;-78
2022/04/24 04:43:06;;;;;;;3.40;1.60;;;;;;;;;;6223159;28;20382;-77
2022/04/24 04:46:08;;;;;;;3.63;1.60;;;;;;;;;;6226817;28;20046;-78
2022/04/24 04:49:09;;;;;;;3.28;1.50;;;;;;;;;;6222905;28;20050;-78
2022/04/24 04:52:11;;;;;;;2.58;1.35;;;;;;;;;;6224538;28;20111;-78
2022/04/24 04:55:14;;;;;;;3.30;1.42;;;;;;;;;;6225002;28;20379;-78
2022/04/24 04:58:16;;;;;;;3.65;1.52;;;;;;;;;;6228267;28;20112;-78
2022/04/24 05:01:18;;;;;;;2.85;1.17;;;;;;;;;;6224736;28;20092;-78
2022/04/24 05:04:20;;;;;;;3.70;1.40;;;;;;;;;;6225918;28;20053;-78
2022/04/24 05:07:21;;;;;;;3.58;1.60;;;;;;;;;;6226465;28;20116;-78
2022/04/24 05:10:25;;;;;;;2.60;0.98;;;;;;;;;;6223653;28;20256;-78
2022/04/24 05:13:26;;;;;;;3.10;1.00;;;;;;;;;;6221134;28;20345;-78
2022/04/24 05:16:29;;;;;;;1.65;0.80;;;;;;;;;;6226575;28;20058;-78
2022/04/24 05:19:30;;;;;;;2.25;0.95;;;;;;;;;;6224370;28;20108;-78
2022/04/24 05:22:32;;;;;;;1.73;1.23;;;;;;;;;;6226586;28;20135;-78
2022/04/24 05:25:35;;;;;;;2.42;1.20;;;;;;;;;;6223227;28;20058;-78
2022/04/24 05:28:37;;;;;;;3.20;1.40;;;;;;;;;;6219977;28;20068;-78
2022/04/24 05:31:39;;;;;;;4.55;0.85;;;;;;;;;;6225839;28;20065;-77
2022/04/24 05:34:40;;;;;;;1.45;0.77;;;;;;;;;;6223325;28;20058;-78
2022/04/24 05:37:42;;;;;;;2.60;0.98;;;;;;;;;;6219910;28;20050;-78
2022/04/24 05:40:45;;;;;;;1.15;0.80;;;;;;;;;;6220861;28;20062;-78
2022/04/24 05:43:46;;;;;;;2.42;0.90;;;;;;;;;;6224406;28;20112;-78
2022/04/24 05:46:48;;;;;;;3.05;1.05;;;;;;;;;;6219994;28;20128;-78
2022/04/24 05:49:50;;;;;;;2.00;0.85;;;;;;;;;;6227502;28;20066;-78
2022/04/24 05:52:54;;;;;;;0.88;0.65;;;;;;;;;;6224007;28;20065;-78
2022/04/24 05:55:57;;;;;;;1.00;0.65;;;;;;;;;;6225671;28;20050;-77
2022/04/24 05:58:59;;;;;;;2.17;0.60;;;;;;;;;;6222044;28;20329;-78
2022/04/24 06:02:01;;;;;;;3.30;0.57;;;;;;;;;;6227595;28;20064;-78
2022/04/24 06:05:02;;;;;;;2.17;0.60;;;;;;;;;;6225932;28;20061;-78
2022/04/24 06:08:05;;;;;;;0.30;0.30;;;;;;;;;;6222566;28;20058;-78
2022/04/24 06:11:08;;;;;;;1.95;0.50;;;;;;;;;;6222319;28;20045;-79
2022/04/24 06:14:09;;;;;;;1.13;0.63;;;;;;;;;;6225126;28;20058;-79
2022/04/24 06:17:11;;;;;;;3.53;0.47;;;;;;;;;;6220863;28;20348;-79
2022/04/24 06:20:13;;;;;;;1.98;0.50;;;;;;;;;;6215027;28;20231;-78
2022/04/24 06:23:14;;;;;;;0.77;0.40;;;;;;;;;;6225818;28;20056;-81
2022/04/24 06:26:17;;;;;;;0.47;0.30;;;;;;;;;;6220834;28;20058;-78
2022/04/24 06:29:19;;;;;;;1.02;0.43;;;;;;;;;;6227489;28;20124;-76
2022/04/24 06:32:21;;;;;;;0.80;0.35;;;;;;;;;;6221754;28;20210;-72
2022/04/24 06:35:23;;;;;;;1.40;1.00;;;;;;;;;;6223387;28;20097;-80
2022/04/24 06:38:24;;;;;;;1.80;0.40;;;;;;;;;;6219915;28;20065;-79
2022/04/24 06:41:27;;;;;;;0.75;0.30;;;;;;;;;;6227260;28;20100;-77
2022/04/24 06:44:29;;;;;;;0.85;0.50;;;;;;;;;;6230140;28;20359;-77
2022/04/24 06:47:30;;;;;;;3.30;0.60;;;;;;;;;;6229438;28;20377;-77
2022/04/24 06:50:33;;;;;;;1.42;0.43;;;;;;;;;;6231413;28;20078;-77
2022/04/24 06:53:37;;;;;;;1.13;0.40;;;;;;;;;;6230599;28;20069;-77
2022/04/24 06:56:40;;;;;;;1.00;0.32;;;;;;;;;;6228379;28;20065;-77
2022/04/24 06:59:42;;;;;;;1.27;0.38;;;;;;;;;;6235240;28;22273;-77
2022/04/24 07:02:44;;;;;;;1.38;0.50;;;;;;;;;;6229954;28;20066;-78
2022/04/24 07:05:45;;;;;;;1.15;0.30;;;;;;;;;;6228549;28;20066;-78
2022/04/24 07:08:47;;;;;;;1.15;0.38;;;;;;;;;;6229984;28;20092;-75
2022/04/24 07:11:50;;;;;;;3.35;0.57;;;;;;;;;;6230458;28;20333;-78
2022/04/24 07:14:51;;;;;;;2.38;0.75;;;;;;;;;;6228149;28;20055;-78
2022/04/24 07:17:53;;;;;;;0.55;0.30;;;;;;;;;;6228299;28;20103;-78
2022/04/24 07:20:55;;;;;;;3.45;0.65;;;;;;;;;;6227580;28;20053;-78
2022/04/24 07:23:57;;;;;;;3.00;0.50;;;;;;;;;;6231290;28;20085;-78
2022/04/24 07:27:00;;;;;;;0.90;0.30;;;;;;;;;;6226879;28;20072;-78
2022/04/24 07:30:02;;;;;;;2.35;0.70;;;;;;;;;;6223825;28;20339;-78
2022/04/24 07:33:03;;;;;;;1.60;0.60;;;;;;;;;;6223838;28;20069;-78
2022/04/24 07:36:05;;;;;;;1.00;0.30;;;;;;;;;;6227566;28;20058;-77
2022/04/24 07:39:07;;;;;;;1.52;0.43;;;;;;;;;;6226942;28;20129;-78
2022/04/24 07:42:10;;;;;;;2.03;0.47;;;;;;;;;;6226858;28;20062;-78
2022/04/24 07:45:12;;;;;;;1.90;0.40;;;;;;;;;;6226323;28;20061;-78
2022/04/24 07:48:14;;;;;;;1.63;0.40;;;;;;;;;;6230247;28;20087;-78
2022/04/24 07:51:16;;;;;;;1.45;0.50;;;;;;;;;;6228074;28;20061;-78
2022/04/24 07:54:17;;;;;;;1.75;0.40;;;;;;;;;;6225394;28;20050;-78
2022/04/24 07:57:21;;;;;;;1.40;0.40;;;;;;;;;;6222129;28;20214;-78
2022/04/24 08:00:24;;;;;;;1.90;0.40;;;;;;;;;;6226247;28;20081;-79
2022/04/24 08:03:26;;;;;;;2.47;0.52;;;;;;;;;;6225020;28;20344;-78
2022/04/24 08:06:28;;;;;;;0.40;0.30;;;;;;;;;;6224914;28;20049;-78
2022/04/24 08:09:29;;;;;;;0.65;0.40;;;;;;;;;;6229201;28;20222;-78
2022/04/24 08:12:32;;;;;;;1.20;0.40;;;;;;;;;;6222601;28;20046;-79
2022/04/24 08:15:34;;;;;;;2.15;0.77;;;;;;;;;;6224739;28;20050;-78
2022/04/24 08:18:36;;;;;;;0.80;0.40;;;;;;;;;;6222603;28;20066;-77
2022/04/24 08:21:38;;;;;;;1.52;0.40;;;;;;;;;;6225124;28;20057;-79
2022/04/24 08:24:40;;;;;;;2.17;0.43;;;;;;;;;;6232730;28;20049;-79
2022/04/24 08:27:43;;;;;;;0.93;0.30;;;;;;;;;;6225469;28;20058;-76
2022/04/24 08:30:46;;;;;;;1.38;0.50;;;;;;;;;;6227417;28;20249;-78
2022/04/24 08:33:47;;;;;;;1.92;0.50;;;;;;;;;;6227869;28;20205;-77
2022/04/24 08:36:49;;;;;;;2.15;0.40;;;;;;;;;;6220398;28;20061;-78
2022/04/24 08:39:51;;;;;;;1.48;0.60;;;;;;;;;;6227299;28;20061;-78
2022/04/24 08:42:54;;;;;;;2.72;0.50;;;;;;;;;;6222419;28;20057;-79
2022/04/24 08:45:56;;;;;;;1.33;0.57;;;;;;;;;;6224919;28;20054;-78
2022/04/24 08:48:58;;;;;;;1.83;0.50;;;;;;;;;;6226407;28;20315;-79
2022/04/24 08:52:00;;;;;;;3.20;0.60;;;;;;;;;;6225274;28;20061;-76
2022/04/24 08:55:02;;;;;;;1.02;0.50;;;;;;;;;;6224672;28;20050;-78
2022/04/24 08:58:06;;;;;;;1.13;0.47;;;;;;;;;;6227719;28;20050;-77
2022/04/24 09:01:07;;;;;;;1.40;0.40;;;;;;;;;;6222950;28;20048;-77
2022/04/24 09:04:09;;;;;;;2.70;0.60;;;;;;;;;;6226530;28;20328;-76
2022/04/24 09:07:17;;;;;;;0.60;0.40;;;;;;;;;;6222947;28;20053;-77
2022/04/24 09:10:19;;;;;;;1.63;0.55;;;;;;;;;;6224153;28;20101;-77
2022/04/24 09:13:29;;;;;;;0.82;0.40;;;;;;;;;;6225095;28;20061;-77
2022/04/24 09:16:35;;;;;;;1.42;0.50;;;;;;;;;;6227151;28;20057;-77
2022/04/24 09:19:38;;;;;;;0.73;0.50;;;;;;;;;;6226675;28;20276;-78
2022/04/24 09:22:40;;;;;;;1.55;0.60;;;;;;;;;;6223502;28;20069;-77
2022/04/24 09:25:42;;;;;;;1.00;0.50;;;;;;;;;;6227883;28;20238;-77
2022/04/24 09:28:45;;;;;;;2.03;0.75;;;;;;;;;;6226346;28;20092;-77
2022/04/24 09:31:47;;;;;;;2.35;0.50;;;;;;;;;;6223763;28;20485;-77
2022/04/24 09:34:50;;;;;;;3.65;0.68;;;;;;;;;;6224330;28;20110;-78
2022/04/24 09:37:52;;;;;;;1.40;0.73;;;;;;;;;;6222680;28;20396;-77
2022/04/24 09:40:55;;;;;;;1.60;0.52;;;;;;;;;;6218502;28;20244;-77
2022/04/24 09:43:58;;;;;;;3.78;1.02;;;;;;;;;;6224037;28;20117;-77
2022/04/24 09:47:00;;;;;;;2.88;0.75;;;;;;;;;;6224500;28;20349;-76
2022/04/24 09:50:04;;;;;;;1.05;0.55;;;;;;;;;;6223812;28;20065;-76
2022/04/24 09:53:06;;;;;;;1.83;0.82;;;;;;;;;;6222547;28;20042;-77
2022/04/24 09:56:09;;;;;;;2.10;0.88;;;;;;;;;;6229054;28;20057;-77
2022/04/24 09:59:13;;;;;;;1.77;0.60;;;;;;;;;;6225806;28;20054;-77
2022/04/24 10:02:17;;;;;;;1.42;0.60;;;;;;;;;;6223304;28;20221;-76
2022/04/24 10:05:19;;;;;;;1.50;0.60;;;;;;;;;;6226505;28;20137;-77
2022/04/24 10:08:21;;;;;;;2.03;0.50;;;;;;;;;;6220075;28;20061;-77
2022/04/24 10:11:22;;;;;;;2.80;0.77;;;;;;;;;;6230747;28;20053;-77
2022/04/24 10:14:25;;;;;;;1.60;0.70;;;;;;;;;;6219853;28;20375;-77
2022/04/24 10:18:04;;;;;;;1.77;0.70;;;;;;;;;;6226697;28;20092;-77
2022/04/24 10:21:24;;;;;;;2.72;0.93;;;;;;;;;;6223584;28;20312;-78
2022/04/24 10:24:26;;;;;;;1.42;0.60;;;;;;;;;;6223226;28;20261;-77
2022/04/24 10:27:39;;;;;;;4.55;0.90;;;;;;;;;;6223078;28;20049;-76
2022/04/24 10:30:44;;;;;;;3.40;0.70;;;;;;;;;;6221073;28;20065;-78
2022/04/24 10:33:53;;;;;;;1.35;0.77;;;;;;;;;;6224481;28;20074;-79
2022/04/24 10:36:58;;;;;;;1.48;0.80;;;;;;;;;;6222583;28;20050;-76
2022/04/24 10:40:01;;;;;;;1.58;0.73;;;;;;;;;;6223460;28;20049;-77
2022/04/24 10:43:07;;;;;;;1.63;0.70;;;;;;;;;;6219832;28;20058;-79
2022/04/24 10:46:21;;;;;;;1.85;0.70;;;;;;;;;;6223985;28;20061;-76
2022/04/24 10:49:24;;;;;;;1.48;0.60;;;;;;;;;;6224719;28;20058;-77
2022/04/24 10:52:26;;;;;;;1.27;0.50;;;;;;;;;;6224700;28;20051;-76
2022/04/24 10:55:30;;;;;;;1.17;0.57;;;;;;;;;;6227949;28;20348;-78
2022/04/24 10:58:31;;;;;;;;;;;;;;;;;;6223642;28;20050;-77
2022/04/24 11:01:35;;;;;;;0.50;0.43;;;;;;;;;;6228868;28;19964;-76
2022/04/24 11:04:40;;;;;;;1.55;0.70;;;;;;;;;;6220632;28;20113;-76
2022/04/24 11:07:42;;;;;;;1.67;0.50;;;;;;;;;;6226479;28;20057;-76
2022/04/24 11:10:47;;;;;;;1.38;0.40;;;;;;;;;;6224005;28;20061;-73
2022/04/24 11:13:49;;;;;;;1.65;0.60;;;;;;;;;;6228053;28;20349;-76
2022/04/24 11:16:53;;;;;;;1.55;0.60;;;;;;;;;;6219032;28;20376;-74
2022/04/24 11:20:00;;;;;;;0.77;0.40;;;;;;;;;;6221849;28;20046;-77
2022/04/24 11:23:02;;;;;;;2.10;0.73;;;;;;;;;;6224666;28;20062;-72
2022/04/24 11:26:08;;;;;;;0.82;0.30;;;;;;;;;;6221815;28;20100;-76
2022/04/24 11:29:10;;;;;;;0.68;0.40;;;;;;;;;;6221670;28;20056;-77
2022/04/24 11:32:13;;;;;;;1.73;0.47;;;;;;;;;;6231883;28;20066;-74
2022/04/24 11:35:15;;;;;;;5.57;0.60;;;;;;;;;;6228142;28;20065;-74
2022/04/24 11:38:17;;;;;;;1.00;0.50;;;;;;;;;;6228056;28;20104;-75
2022/04/24 11:41:20;;;;;;;1.05;0.60;;;;;;;;;;6228925;28;20096;-75
2022/04/24 11:51:02;;;;;;;0.75;0.40;;;;;;;;;;6228446;28;20058;-76
2022/04/24 11:54:04;;;;;;;2.03;0.50;;;;;;;;;;6227995;28;20058;-75
2022/04/24 11:57:06;;;;;;;0.73;0.40;;;;;;;;;;6226248;28;20054;-76
2022/04/24 12:00:12;;;;;;;2.45;0.68;;;;;;;;;;6225715;28;20108;-76
2022/04/24 12:03:15;;;;;;;3.22;0.50;;;;;;;;;;6229667;28;20184;-75
2022/04/24 12:06:17;;;;;;;1.33;0.45;;;;;;;;;;6226322;28;20061;-75
2022/04/24 12:09:22;;;;;;;1.90;0.47;;;;;;;;;;6226736;28;20058;-76
2022/04/24 12:12:24;;;;;;;3.65;0.52;;;;;;;;;;6228819;28;20333;-76
2022/04/24 12:15:26;;;;;;;3.05;0.68;;;;;;;;;;6227923;28;20061;-76
2022/04/24 12:18:29;;;;;;;2.33;0.40;;;;;;;;;;6222346;28;20050;-76
2022/04/24 12:21:32;;;;;;;0.77;0.38;;;;;;;;;;6229183;28;20301;-76
2022/04/24 12:24:41;;;;;;;1.10;0.47;;;;;;;;;;6223256;28;20053;-76
2022/04/24 12:27:52;;;;;;;2.00;0.60;;;;;;;;;;6222581;28;20105;-75
2022/04/24 12:30:53;;;;;;;0.90;0.50;;;;;;;;;;6225389;28;20054;-76
2022/04/24 12:33:58;;;;;;;1.17;0.47;;;;;;;;;;6222492;28;20066;-75
2022/04/24 12:36:59;;;;;;;0.60;0.40;;;;;;;;;;6225428;28;20057;-76
2022/04/24 12:40:02;;;;;;;0.75;0.50;;;;;;;;;;6227136;28;20046;-76
2022/04/24 12:43:03;;;;;;;4.15;0.75;;;;;;;;;;6227786;28;20046;-76
2022/04/24 12:46:05;;;;;;;0.80;0.40;;;;;;;;;;6214358;28;20065;-76
2022/04/24 12:49:09;;;;;;;1.33;0.70;;;;;;;;;;6227766;28;20069;-76
2022/04/24 12:52:11;;;;;;;1.63;0.60;;;;;;;;;;6223380;28;20289;-75
2022/04/24 12:55:14;;;;;;;0.63;0.50;;;;;;;;;;6229957;28;20061;-76
2022/04/24 12:58:16;;;;;;;1.73;0.60;;;;;;;;;;6220380;28;20138;-75
2022/04/24 13:01:21;;;;;;;1.52;0.70;;;;;;;;;;6226749;28;20057;-75
2022/04/24 13:04:23;;;;;;;0.98;0.50;;;;;;;;;;6223655;28;21074;-75
2022/04/24 13:07:26;;;;;;;1.30;0.50;;;;;;;;;;6222590;28;20050;-74
2022/04/24 13:10:28;;;;;;;0.80;0.73;;;;;;;;;;6219539;28;20123;-75
2022/04/24 13:21:06;;;;;;;0.70;0.60;;;;;;;;;;7543940;23;20031;-73
2022/04/24 13:24:07;;;;;;;;;;;;;;;;;;6173584;28;20261;-74
2022/04/24 13:27:09;;;;;;;0.85;0.55;;;;;;;;;;6169884;28;20209;-75
2022/04/24 13:30:11;;;;;;;1.20;0.60;;;;;;;;;;6180494;28;20046;-74
2022/04/24 13:33:14;;;;;;;0.93;0.70;;;;;;;;;;6173737;28;20389;-74
2022/04/24 13:36:17;;;;;;;1.65;0.60;;;;;;;;;;6172091;28;20047;-74
2022/04/24 13:39:18;;;;;;;1.98;0.98;;;;;;;;;;6172755;28;20055;-75
2022/04/24 13:42:20;;;;;;;1.65;0.93;;;;;;;;;;6173096;28;20191;-74
2022/04/24 13:45:22;;;;;;;1.50;1.35;;;;;;;;;;6172385;28;20119;-75
2022/04/24 13:48:24;;;;;;;1.60;0.60;;;;;;;;;;6171477;28;20239;-75
2022/04/24 13:51:27;;;;;;;1.60;0.82;;;;;;;;;;6178033;28;20055;-75
2022/04/24 13:54:29;;;;;;;1.88;0.90;;;;;;;;;;6173653;28;20329;-75
2022/04/24 13:57:31;;;;;;;1.55;0.90;;;;;;;;;;6180040;28;20277;-75
2022/04/24 14:00:33;;;;;;;1.27;0.70;;;;;;;;;;6176125;28;20118;-75
2022/04/24 14:03:35;;;;;;;1.50;0.70;;;;;;;;;;6175952;28;20067;-74
2022/04/24 14:06:38;;;;;;;0.73;0.50;;;;;;;;;;6169674;28;20153;-74
2022/04/24 14:09:41;;;;;;;2.00;0.70;;;;;;;;;;6174595;28;20059;-74
2022/04/24 14:12:43;;;;;;;3.35;1.02;;;;;;;;;;6174965;28;20222;-74
2022/04/24 14:15:44;;;;;;;3.42;1.23;;;;;;;;;;6186559;28;20059;-75
2022/04/24 14:18:46;;;;;;;1.75;0.88;;;;;;;;;;6172551;28;20051;-75
2022/04/24 14:21:51;;;;;;;1.83;1.05;;;;;;;;;;6176586;28;20348;-76
2022/04/24 14:24:53;;;;;;;3.05;1.23;;;;;;;;;;6174312;28;20070;-74
2022/04/24 14:27:55;;;;;;;2.45;1.08;;;;;;;;;;6174066;28;20071;-75
2022/04/24 14:30:57;;;;;;;2.08;1.10;;;;;;;;;;6174713;28;20353;-75
2022/04/24 14:33:59;;;;;;;1.92;1.05;;;;;;;;;;6175308;28;20099;-75
2022/04/24 14:37:02;;;;;;;1.10;0.70;;;;;;;;;;6178773;28;20047;-74
2022/04/24 14:40:06;;;;;;;1.35;1.00;;;;;;;;;;6171763;28;20054;-75
2022/04/24 14:43:09;;;;;;;;;;;;;;;;;;6173720;28;20058;-74
2022/04/24 14:56:11;;;;;;;4.18;1.00;;;;;;;;;;6172330;28;20118;-74
2022/04/24 14:59:15;;;;;;;0.95;0.80;;;;;;;;;;6175235;28;20095;-73
2022/04/24 15:02:17;;;;;;;1.20;0.77;;;;;;;;;;6173332;28;20066;-74
2022/04/24 15:05:19;;;;;;;2.33;0.80;;;;;;;;;;6179823;28;20062;-74
2022/04/24 15:08:22;;;;;;;1.85;0.90;;;;;;;;;;6180677;28;20633;-74
2022/04/24 15:11:24;;;;;;;1.95;1.02;;;;;;;;;;6179647;28;20062;-75
2022/04/24 15:14:25;;;;;;;2.45;0.82;;;;;;;;;;6176299;28;20114;-74
2022/04/24 15:17:27;;;;;;;1.00;0.90;;;;;;;;;;6183263;28;20082;-75
2022/04/24 15:20:29;;;;;;;1.10;0.68;;;;;;;;;;6181627;28;20318;-75
2022/04/24 15:23:31;;;;;;;1.20;0.80;;;;;;;;;;6178637;28;20063;-75
2022/04/24 15:26:33;;;;;;;1.40;0.82;;;;;;;;;;6179585;28;20121;-74
2022/04/24 15:29:35;;;;;;;3.90;0.90;;;;;;;;;;6178107;28;20073;-74
2022/04/24 15:32:37;;;;;;;0.77;0.57;;;;;;;;;;6178917;28;20290;-75
2022/04/24 15:35:39;;;;;;;1.58;0.65;;;;;;;;;;6181430;28;20059;-75
2022/04/24 15:38:42;;;;;;;3.13;1.73;;;;;;;;;;6182059;28;20315;-75
2022/04/24 15:41:43;;;;;;;2.95;1.35;;;;;;;;;;6179068;28;20369;-74
2022/04/24 15:48:05;;;;;;;0.93;0.68;;;;;;;;;;6177765;28;20245;-75
2022/04/24 15:51:07;;;;;;;0.75;0.55;;;;;;;;;;6176522;28;20073;-76
2022/04/24 15:54:10;;;;;;;0.63;0.60;;;;;;;;;;6176061;28;20119;-75
2022/04/24 15:57:12;;;;;;;0.50;0.40;;;;;;;;;;6178414;28;20054;-75
2022/04/24 16:00:15;;;;;;;0.70;0.50;;;;;;;;;;6178849;28;20120;-75
2022/04/24 16:03:17;;;;;;;0.93;0.55;;;;;;;;;;6177831;28;20073;-75
2022/04/24 16:06:19;;;;;;;0.95;0.45;;;;;;;;;;6176974;28;20057;-74
2022/04/24 16:09:21;;;;;;;1.30;0.60;;;;;;;;;;6177167;28;20460;-74
2022/04/24 16:12:23;;;;;;;1.45;0.68;;;;;;;;;;6182931;28;20063;-74
2022/04/24 16:15:25;;;;;;;1.33;0.60;;;;;;;;;;6173184;28;20239;-74
2022/04/24 16:18:27;;;;;;;1.20;0.60;;;;;;;;;;6181493;28;20050;-75
2022/04/24 16:21:31;;;;;;;2.50;0.93;;;;;;;;;;6174880;28;20082;-75
2022/04/24 16:24:34;;;;;;;0.82;0.40;;;;;;;;;;6179216;28;20058;-75
2022/04/24 16:27:36;;;;;;;0.43;0.40;;;;;;;;;;6174999;28;20412;-75
2022/04/24 16:30:37;;;;;;;2.85;0.50;;;;;;;;;;6176601;28;20078;-75
2022/04/24 16:33:41;;;;;;;1.48;0.60;;;;;;;;;;6173895;28;20059;-75
2022/04/24 16:36:42;;;;;;;0.70;0.60;;;;;;;;;;6174678;28;20075;-76
2022/04/24 16:39:45;;;;;;;0.90;0.60;;;;;;;;;;6173194;28;20841;-75
2022/04/24 16:42:47;;;;;;;2.20;0.53;;;;;;;;;;6179160;28;20345;-75
2022/04/24 16:45:48;;;;;;;0.85;0.50;;;;;;;;;;6174986;28;20118;-75
2022/04/24 16:48:50;;;;;;;1.23;0.82;;;;;;;;;;6175057;28;20244;-75
2022/04/24 16:58:47;;;;;;;3.13;0.60;;;;;;;;;;6173982;28;20257;-75
2022/04/24 17:01:49;;;;;;;2.60;0.50;;;;;;;;;;6172549;28;20318;-75
2022/04/24 17:04:51;;;;;;;2.15;0.52;;;;;;;;;;6179570;28;20054;-75
2022/04/24 17:07:52;;;;;;;1.02;0.47;;;;;;;;;;6174081;28;20351;-74
2022/04/24 17:10:55;;;;;;;3.53;0.77;;;;;;;;;;6180526;28;20050;-75
2022/04/24 17:13:57;;;;;;;3.10;0.82;;;;;;;;;;6172448;28;20055;-74
2022/04/24 17:16:59;;;;;;;1.48;0.52;;;;;;;;;;6178521;28;20058;-76
2022/04/24 17:20:00;;;;;;;1.25;0.60;;;;;;;;;;6176812;28;20388;-78
2022/04/24 17:23:02;;;;;;;1.40;0.60;;;;;;;;;;6182952;28;20102;-76
2022/04/24 17:26:05;;;;;;;1.48;0.63;;;;;;;;;;6172316;28;20350;-76
2022/04/24 17:29:07;;;;;;;0.60;0.40;;;;;;;;;;6174999;28;20236;-75
2022/04/24 17:32:09;;;;;;;2.17;0.47;;;;;;;;;;6177612;28;20451;-74
2022/04/24 17:35:11;;;;;;;0.57;0.35;;;;;;;;;;6172989;28;20043;-76
2022/04/24 17:38:12;;;;;;;2.05;0.57;;;;;;;;;;6173330;28;20101;-75
2022/04/24 17:41:16;;;;;;;0.73;0.43;;;;;;;;;;6171865;28;20043;-76
2022/04/24 17:44:19;;;;;;;0.90;0.50;;;;;;;;;;6177410;28;20072;-75
2022/04/24 17:47:20;;;;;;;0.95;0.60;;;;;;;;;;6178867;28;20059;-75
2022/04/24 17:50:22;;;;;;;2.35;1.50;;;;;;;;;;6172601;28;20142;-76
2022/04/24 17:53:26;;;;;;;1.15;0.47;;;;;;;;;;6175883;28;20097;-75
2022/04/24 17:56:29;;;;;;;0.93;0.50;;;;;;;;;;6182298;28;20074;-75
2022/04/24 17:59:30;;;;;;;2.73;0.70;;;;;;;;;;6179138;28;20047;-76
2022/04/24 18:02:32;;;;;;;2.35;0.65;;;;;;;;;;6175095;28;20066;-75
2022/04/24 18:05:34;;;;;;;1.08;0.47;;;;;;;;;;6177433;28;20251;-75
2022/04/24 18:08:35;;;;;;;1.83;0.70;;;;;;;;;;6177034;28;20062;-74
2022/04/24 18:11:39;;;;;;;1.02;0.60;;;;;;;;;;6175147;28;20051;-74
2022/04/24 18:14:40;;;;;;;1.75;0.50;;;;;;;;;;6177130;28;20284;-72
2022/04/24 18:17:42;;;;;;;1.10;0.63;;;;;;;;;;6172982;28;20046;-73
2022/04/24 18:20:44;;;;;;;4.70;1.10;;;;;;;;;;6176837;28;20094;-75
2022/04/24 18:23:45;;;;;;;2.00;1.00;;;;;;;;;;6175504;28;20282;-76
2022/04/24 18:26:48;;;;;;;1.70;0.73;;;;;;;;;;6173819;28;20055;-75
2022/04/24 18:29:50;;;;;;;2.17;0.83;;;;;;;;;;6181805;28;20054;-82
2022/04/24 18:32:52;;;;;;;1.77;0.95;;;;;;;;;;6174576;28;20250;-79
2022/04/24 18:39:12;;;;;;;4.10;1.40;;;;;;;;;;6176639;28;20407;-78
2022/04/24 18:42:15;;;;;;;2.60;1.42;;;;;;;;;;6184408;28;20411;-78
2022/04/24 18:45:18;;;;;;;4.00;2.40;;;;;;;;;;6182505;28;20189;-77
2022/04/24 18:48:20;;;;;;;5.05;2.33;;;;;;;;;;6180326;28;20377;-77
2022/04/24 18:51:22;;;;;;;4.88;2.50;;;;;;;;;;6179602;28;20077;-78
2022/04/24 18:54:24;;;;;;;4.13;1.77;;;;;;;;;;6182935;28;20510;-78
2022/04/24 18:57:27;;;;;;;3.47;1.50;;;;;;;;;;6180188;28;20062;-74